sensor_id;sensor_type;location;lat;lon;timestamp;P1;durP1;ratioP1;P2;durP2;ratioP2
47778;SDS011;33538;48.432;11.350;2022-09-21T00:00:53;1.60;;;0.93;;
47778;SDS011;33538;48.432;11.350;2022-09-21T00:03:20;1.45;;;1.10;;
47778;SDS011;33538;48.432;11.350;2022-09-21T00:05:47;1.60;;;1.23;;
47778;SDS011;33538;48.432;11.350;2022-09-21T00:08:13;1.83;;;1.00;;
47778;SDS011;33538;48.432;11.350;2022-09-21T00:10:41;1.33;;;0.98;;
47778;SDS011;33538;48.432;11.350;2022-09-21T00:13:14;1.42;;;1.10;;
47778;SDS011;33538;48.432;11.350;2022-09-21T00:15:41;1.55;;;0.90;;
47778;SDS011;33538;48.432;11.350;2022-09-21T00:18:08;4.78;;;0.98;;
47778;SDS011;33538;48.432;11.350;2022-09-21T00:20:35;3.33;;;1.08;;
47778;SDS011;33538;48.432;11.350;2022-09-21T00:23:02;1.80;;;1.00;;
47778;SDS011;33538;48.432;11.350;2022-09-21T00:25:28;1.65;;;0.90;;
47778;SDS011;33538;48.432;11.350;2022-09-21T00:27:57;1.85;;;0.90;;
47778;SDS011;33538;48.432;11.350;2022-09-21T00:30:23;1.25;;;1.02;;
47778;SDS011;33538;48.432;11.350;2022-09-21T00:32:51;2.17;;;0.90;;
47778;SDS011;33538;48.432;11.350;2022-09-21T00:35:18;0.93;;;0.80;;
47778;SDS011;33538;48.432;11.350;2022-09-21T00:37:45;6.30;;;0.90;;
47778;SDS011;33538;48.432;11.350;2022-09-21T00:40:12;1.80;;;1.02;;
47778;SDS011;33538;48.432;11.350;2022-09-21T00:42:39;0.85;;;0.80;;
47778;SDS011;33538;48.432;11.350;2022-09-21T00:45:09;1.50;;;0.95;;
47778;SDS011;33538;48.432;11.350;2022-09-21T00:47:38;0.95;;;0.80;;
47778;SDS011;33538;48.432;11.350;2022-09-21T00:50:07;2.80;;;1.45;;
47778;SDS011;33538;48.432;11.350;2022-09-21T00:52:39;2.22;;;1.27;;
47778;SDS011;33538;48.432;11.350;2022-09-21T00:55:09;0.73;;;0.73;;
47778;SDS011;33538;48.432;11.350;2022-09-21T00:57:41;0.70;;;0.70;;
47778;SDS011;33538;48.432;11.350;2022-09-21T01:00:10;1.45;;;0.98;;
47778;SDS011;33538;48.432;11.350;2022-09-21T01:02:37;1.90;;;1.10;;
47778;SDS011;33538;48.432;11.350;2022-09-21T01:05:05;4.20;;;1.10;;
47778;SDS011;33538;48.432;11.350;2022-09-21T01:07:34;1.15;;;0.90;;
47778;SDS011;33538;48.432;11.350;2022-09-21T01:10:05;2.60;;;1.00;;
47778;SDS011;33538;48.432;11.350;2022-09-21T01:12:40;1.63;;;1.15;;
47778;SDS011;33538;48.432;11.350;2022-09-21T01:15:21;3.22;;;1.17;;
47778;SDS011;33538;48.432;11.350;2022-09-21T01:17:58;1.27;;;1.05;;
47778;SDS011;33538;48.432;11.350;2022-09-21T01:23:49;1.58;;;0.90;;
47778;SDS011;33538;48.432;11.350;2022-09-21T01:26:39;2.38;;;0.93;;
47778;SDS011;33538;48.432;11.350;2022-09-21T01:29:26;1.23;;;0.90;;
47778;SDS011;33538;48.432;11.350;2022-09-21T01:31:57;1.47;;;1.20;;
47778;SDS011;33538;48.432;11.350;2022-09-21T01:34:30;2.00;;;1.17;;
47778;SDS011;33538;48.432;11.350;2022-09-21T01:37:02;4.18;;;1.20;;
47778;SDS011;33538;48.432;11.350;2022-09-21T01:39:32;3.60;;;1.40;;
47778;SDS011;33538;48.432;11.350;2022-09-21T01:42:00;1.52;;;1.10;;
47778;SDS011;33538;48.432;11.350;2022-09-21T01:44:30;2.33;;;1.20;;
47778;SDS011;33538;48.432;11.350;2022-09-21T01:47:00;2.08;;;0.90;;
47778;SDS011;33538;48.432;11.350;2022-09-21T01:49:29;5.40;;;1.20;;
47778;SDS011;33538;48.432;11.350;2022-09-21T01:52:01;1.75;;;1.10;;
47778;SDS011;33538;48.432;11.350;2022-09-21T01:54:36;4.55;;;1.27;;
47778;SDS011;33538;48.432;11.350;2022-09-21T02:00:04;1.08;;;0.98;;
47778;SDS011;33538;48.432;11.350;2022-09-21T02:02:33;1.38;;;0.90;;
47778;SDS011;33538;48.432;11.350;2022-09-21T02:05:05;1.95;;;0.98;;
47778;SDS011;33538;48.432;11.350;2022-09-21T02:07:33;1.48;;;1.00;;
47778;SDS011;33538;48.432;11.350;2022-09-21T02:10:00;1.70;;;0.73;;
47778;SDS011;33538;48.432;11.350;2022-09-21T02:12:29;2.15;;;1.17;;
47778;SDS011;33538;48.432;11.350;2022-09-21T02:14:55;3.30;;;1.25;;
47778;SDS011;33538;48.432;11.350;2022-09-21T02:17:29;4.75;;;1.05;;
47778;SDS011;33538;48.432;11.350;2022-09-21T02:20:04;1.20;;;0.82;;
47778;SDS011;33538;48.432;11.350;2022-09-21T02:22:42;2.10;;;0.95;;
47778;SDS011;33538;48.432;11.350;2022-09-21T02:25:20;1.38;;;1.02;;
47778;SDS011;33538;48.432;11.350;2022-09-21T02:27:55;1.73;;;1.00;;
47778;SDS011;33538;48.432;11.350;2022-09-21T02:30:26;3.70;;;0.90;;
47778;SDS011;33538;48.432;11.350;2022-09-21T02:32:57;1.98;;;0.82;;
47778;SDS011;33538;48.432;11.350;2022-09-21T02:35:30;1.58;;;1.10;;
47778;SDS011;33538;48.432;11.350;2022-09-21T02:38:02;1.38;;;1.27;;
47778;SDS011;33538;48.432;11.350;2022-09-21T02:40:34;1.52;;;1.15;;
47778;SDS011;33538;48.432;11.350;2022-09-21T02:43:07;1.52;;;0.98;;
47778;SDS011;33538;48.432;11.350;2022-09-21T02:45:38;0.98;;;0.80;;
47778;SDS011;33538;48.432;11.350;2022-09-21T02:48:13;1.55;;;1.00;;
47778;SDS011;33538;48.432;11.350;2022-09-21T02:50:43;0.90;;;0.80;;
47778;SDS011;33538;48.432;11.350;2022-09-21T02:53:14;1.00;;;0.60;;
47778;SDS011;33538;48.432;11.350;2022-09-21T02:55:43;1.30;;;0.65;;
47778;SDS011;33538;48.432;11.350;2022-09-21T02:58:12;1.17;;;0.73;;
47778;SDS011;33538;48.432;11.350;2022-09-21T03:00:40;0.73;;;0.70;;
47778;SDS011;33538;48.432;11.350;2022-09-21T03:03:15;2.30;;;1.30;;
47778;SDS011;33538;48.432;11.350;2022-09-21T03:05:44;1.25;;;0.93;;
47778;SDS011;33538;48.432;11.350;2022-09-21T03:08:13;0.80;;;0.80;;
47778;SDS011;33538;48.432;11.350;2022-09-21T03:10:40;1.40;;;1.10;;
47778;SDS011;33538;48.432;11.350;2022-09-21T03:13:07;1.42;;;1.10;;
47778;SDS011;33538;48.432;11.350;2022-09-21T03:15:34;1.67;;;1.15;;
47778;SDS011;33538;48.432;11.350;2022-09-21T03:18:01;3.45;;;1.10;;
47778;SDS011;33538;48.432;11.350;2022-09-21T03:20:30;2.42;;;0.98;;
47778;SDS011;33538;48.432;11.350;2022-09-21T03:22:57;2.38;;;1.27;;
47778;SDS011;33538;48.432;11.350;2022-09-21T03:25:24;3.10;;;1.10;;
47778;SDS011;33538;48.432;11.350;2022-09-21T03:27:50;1.02;;;0.90;;
47778;SDS011;33538;48.432;11.350;2022-09-21T03:30:17;1.75;;;1.10;;
47778;SDS011;33538;48.432;11.350;2022-09-21T03:32:44;1.38;;;1.00;;
47778;SDS011;33538;48.432;11.350;2022-09-21T03:35:11;1.20;;;0.68;;
47778;SDS011;33538;48.432;11.350;2022-09-21T03:37:39;1.90;;;1.10;;
47778;SDS011;33538;48.432;11.350;2022-09-21T03:40:07;1.80;;;1.02;;
47778;SDS011;33538;48.432;11.350;2022-09-21T03:42:34;1.30;;;0.73;;
47778;SDS011;33538;48.432;11.350;2022-09-21T03:45:01;1.00;;;0.90;;
47778;SDS011;33538;48.432;11.350;2022-09-21T03:47:28;1.38;;;0.90;;
47778;SDS011;33538;48.432;11.350;2022-09-21T03:49:55;1.77;;;0.90;;
47778;SDS011;33538;48.432;11.350;2022-09-21T03:52:22;1.40;;;0.80;;
47778;SDS011;33538;48.432;11.350;2022-09-21T03:54:50;1.10;;;1.00;;
47778;SDS011;33538;48.432;11.350;2022-09-21T03:57:17;1.45;;;1.00;;
47778;SDS011;33538;48.432;11.350;2022-09-21T03:59:43;0.75;;;0.75;;
47778;SDS011;33538;48.432;11.350;2022-09-21T04:02:10;1.08;;;0.77;;
47778;SDS011;33538;48.432;11.350;2022-09-21T04:04:37;2.10;;;1.33;;
47778;SDS011;33538;48.432;11.350;2022-09-21T04:07:03;1.48;;;1.15;;
47778;SDS011;33538;48.432;11.350;2022-09-21T04:09:30;1.48;;;0.90;;
47778;SDS011;33538;48.432;11.350;2022-09-21T04:11:58;0.73;;;0.73;;
47778;SDS011;33538;48.432;11.350;2022-09-21T04:14:25;2.78;;;1.50;;
47778;SDS011;33538;48.432;11.350;2022-09-21T04:16:52;1.38;;;1.02;;
47778;SDS011;33538;48.432;11.350;2022-09-21T04:19:18;1.50;;;0.95;;
47778;SDS011;33538;48.432;11.350;2022-09-21T04:21:45;1.42;;;1.08;;
47778;SDS011;33538;48.432;11.350;2022-09-21T04:24:12;1.63;;;0.82;;
47778;SDS011;33538;48.432;11.350;2022-09-21T04:26:39;1.63;;;0.95;;
47778;SDS011;33538;48.432;11.350;2022-09-21T04:29:07;1.55;;;1.00;;
47778;SDS011;33538;48.432;11.350;2022-09-21T04:31:34;1.05;;;0.95;;
47778;SDS011;33538;48.432;11.350;2022-09-21T04:34:01;1.90;;;1.10;;
47778;SDS011;33538;48.432;11.350;2022-09-21T04:36:28;1.63;;;1.20;;
47778;SDS011;33538;48.432;11.350;2022-09-21T04:39:01;1.58;;;1.10;;
47778;SDS011;33538;48.432;11.350;2022-09-21T04:41:29;1.17;;;0.85;;
47778;SDS011;33538;48.432;11.350;2022-09-21T04:43:55;1.23;;;1.08;;
47778;SDS011;33538;48.432;11.350;2022-09-21T04:46:24;1.20;;;1.10;;
47778;SDS011;33538;48.432;11.350;2022-09-21T04:48:50;2.08;;;1.30;;
47778;SDS011;33538;48.432;11.350;2022-09-21T04:51:17;1.75;;;1.10;;
47778;SDS011;33538;48.432;11.350;2022-09-21T04:53:44;3.90;;;1.20;;
47778;SDS011;33538;48.432;11.350;2022-09-21T04:56:12;1.30;;;0.95;;
47778;SDS011;33538;48.432;11.350;2022-09-21T04:58:40;4.65;;;1.13;;
47778;SDS011;33538;48.432;11.350;2022-09-21T05:01:07;9.50;;;1.20;;
47778;SDS011;33538;48.432;11.350;2022-09-21T05:03:36;1.40;;;1.17;;
47778;SDS011;33538;48.432;11.350;2022-09-21T05:06:03;3.55;;;0.90;;
47778;SDS011;33538;48.432;11.350;2022-09-21T05:08:30;1.92;;;1.33;;
47778;SDS011;33538;48.432;11.350;2022-09-21T05:10:56;2.03;;;1.00;;
47778;SDS011;33538;48.432;11.350;2022-09-21T05:13:23;1.70;;;1.10;;
47778;SDS011;33538;48.432;11.350;2022-09-21T05:15:50;4.00;;;1.52;;
47778;SDS011;33538;48.432;11.350;2022-09-21T05:18:17;1.17;;;0.93;;
47778;SDS011;33538;48.432;11.350;2022-09-21T05:20:45;1.92;;;1.27;;
47778;SDS011;33538;48.432;11.350;2022-09-21T05:23:19;3.63;;;1.10;;
47778;SDS011;33538;48.432;11.350;2022-09-21T05:25:45;1.73;;;1.35;;
47778;SDS011;33538;48.432;11.350;2022-09-21T05:28:12;1.55;;;1.10;;
47778;SDS011;33538;48.432;11.350;2022-09-21T05:30:39;1.98;;;1.20;;
47778;SDS011;33538;48.432;11.350;2022-09-21T05:33:27;2.90;;;1.40;;
47778;SDS011;33538;48.432;11.350;2022-09-21T05:36:00;1.80;;;1.20;;
47778;SDS011;33538;48.432;11.350;2022-09-21T05:38:34;1.73;;;1.08;;
47778;SDS011;33538;48.432;11.350;2022-09-21T05:41:02;2.03;;;1.20;;
47778;SDS011;33538;48.432;11.350;2022-09-21T05:43:29;8.13;;;1.10;;
47778;SDS011;33538;48.432;11.350;2022-09-21T05:45:57;2.58;;;1.20;;
47778;SDS011;33538;48.432;11.350;2022-09-21T05:48:29;1.42;;;1.10;;
47778;SDS011;33538;48.432;11.350;2022-09-21T05:51:04;1.35;;;1.00;;
47778;SDS011;33538;48.432;11.350;2022-09-21T05:53:40;1.25;;;1.00;;
47778;SDS011;33538;48.432;11.350;2022-09-21T05:56:17;0.68;;;0.68;;
47778;SDS011;33538;48.432;11.350;2022-09-21T05:58:58;3.72;;;1.27;;
47778;SDS011;33538;48.432;11.350;2022-09-21T06:01:35;2.72;;;1.17;;
47778;SDS011;33538;48.432;11.350;2022-09-21T06:04:12;4.05;;;1.50;;
47778;SDS011;33538;48.432;11.350;2022-09-21T06:06:40;1.15;;;1.05;;
47778;SDS011;33538;48.432;11.350;2022-09-21T06:09:07;3.17;;;1.13;;
47778;SDS011;33538;48.432;11.350;2022-09-21T06:11:34;3.63;;;1.55;;
47778;SDS011;33538;48.432;11.350;2022-09-21T06:14:01;2.83;;;1.65;;
47778;SDS011;33538;48.432;11.350;2022-09-21T06:16:35;2.80;;;1.48;;
47778;SDS011;33538;48.432;11.350;2022-09-21T06:19:02;2.22;;;1.50;;
47778;SDS011;33538;48.432;11.350;2022-09-21T06:21:29;2.30;;;1.50;;
47778;SDS011;33538;48.432;11.350;2022-09-21T06:23:57;2.75;;;1.30;;
47778;SDS011;33538;48.432;11.350;2022-09-21T06:26:24;4.22;;;1.98;;
47778;SDS011;33538;48.432;11.350;2022-09-21T06:28:52;10.18;;;2.80;;
47778;SDS011;33538;48.432;11.350;2022-09-21T06:31:19;6.50;;;2.92;;
47778;SDS011;33538;48.432;11.350;2022-09-21T06:33:46;8.00;;;2.75;;
47778;SDS011;33538;48.432;11.350;2022-09-21T06:36:13;5.40;;;2.38;;
47778;SDS011;33538;48.432;11.350;2022-09-21T06:38:41;2.28;;;1.33;;
47778;SDS011;33538;48.432;11.350;2022-09-21T06:41:09;2.47;;;1.80;;
47778;SDS011;33538;48.432;11.350;2022-09-21T06:43:36;1.95;;;1.58;;
47778;SDS011;33538;48.432;11.350;2022-09-21T06:46:03;2.97;;;1.92;;
47778;SDS011;33538;48.432;11.350;2022-09-21T06:48:31;4.07;;;2.00;;
47778;SDS011;33538;48.432;11.350;2022-09-21T06:50:59;4.03;;;2.30;;
47778;SDS011;33538;48.432;11.350;2022-09-21T06:53:27;3.28;;;1.83;;
47778;SDS011;33538;48.432;11.350;2022-09-21T06:55:58;4.82;;;2.42;;
47778;SDS011;33538;48.432;11.350;2022-09-21T06:58:27;6.50;;;3.35;;
47778;SDS011;33538;48.432;11.350;2022-09-21T07:00:55;7.47;;;3.97;;
47778;SDS011;33538;48.432;11.350;2022-09-21T07:03:22;10.07;;;5.05;;
47778;SDS011;33538;48.432;11.350;2022-09-21T07:05:48;14.77;;;5.35;;
47778;SDS011;33538;48.432;11.350;2022-09-21T07:08:15;10.55;;;4.88;;
47778;SDS011;33538;48.432;11.350;2022-09-21T07:11:02;11.18;;;5.32;;
47778;SDS011;33538;48.432;11.350;2022-09-21T07:13:30;7.90;;;4.75;;
47778;SDS011;33538;48.432;11.350;2022-09-21T07:15:57;5.18;;;2.92;;
47778;SDS011;33538;48.432;11.350;2022-09-21T07:18:28;5.53;;;2.90;;
47778;SDS011;33538;48.432;11.350;2022-09-21T07:20:56;5.80;;;2.45;;
47778;SDS011;33538;48.432;11.350;2022-09-21T07:23:22;4.75;;;2.50;;
47778;SDS011;33538;48.432;11.350;2022-09-21T07:25:49;4.50;;;2.35;;
47778;SDS011;33538;48.432;11.350;2022-09-21T07:28:16;3.35;;;2.08;;
47778;SDS011;33538;48.432;11.350;2022-09-21T07:30:44;6.47;;;2.50;;
47778;SDS011;33538;48.432;11.350;2022-09-21T07:33:11;4.47;;;2.22;;
47778;SDS011;33538;48.432;11.350;2022-09-21T07:35:38;6.57;;;2.58;;
47778;SDS011;33538;48.432;11.350;2022-09-21T07:38:05;5.22;;;2.03;;
47778;SDS011;33538;48.432;11.350;2022-09-21T07:40:33;4.07;;;2.22;;
47778;SDS011;33538;48.432;11.350;2022-09-21T07:43:00;3.40;;;1.98;;
47778;SDS011;33538;48.432;11.350;2022-09-21T07:45:27;3.47;;;2.13;;
47778;SDS011;33538;48.432;11.350;2022-09-21T07:47:56;3.25;;;2.20;;
47778;SDS011;33538;48.432;11.350;2022-09-21T07:50:27;3.13;;;2.20;;
47778;SDS011;33538;48.432;11.350;2022-09-21T07:52:54;4.60;;;2.08;;
47778;SDS011;33538;48.432;11.350;2022-09-21T07:55:21;2.33;;;1.60;;
47778;SDS011;33538;48.432;11.350;2022-09-21T07:57:48;3.28;;;1.80;;
47778;SDS011;33538;48.432;11.350;2022-09-21T08:00:15;3.25;;;2.20;;
47778;SDS011;33538;48.432;11.350;2022-09-21T08:02:42;1.60;;;1.40;;
47778;SDS011;33538;48.432;11.350;2022-09-21T08:05:14;4.45;;;1.65;;
47778;SDS011;33538;48.432;11.350;2022-09-21T08:07:41;1.95;;;1.20;;
47778;SDS011;33538;48.432;11.350;2022-09-21T08:10:08;1.42;;;1.17;;
47778;SDS011;33538;48.432;11.350;2022-09-21T08:12:35;1.98;;;1.55;;
47778;SDS011;33538;48.432;11.350;2022-09-21T08:15:02;1.42;;;1.15;;
47778;SDS011;33538;48.432;11.350;2022-09-21T08:17:29;3.47;;;1.40;;
47778;SDS011;33538;48.432;11.350;2022-09-21T08:19:56;1.77;;;0.95;;
47778;SDS011;33538;48.432;11.350;2022-09-21T08:22:24;1.90;;;1.27;;
47778;SDS011;33538;48.432;11.350;2022-09-21T08:24:50;1.85;;;1.10;;
47778;SDS011;33538;48.432;11.350;2022-09-21T08:27:17;1.88;;;1.30;;
47778;SDS011;33538;48.432;11.350;2022-09-21T08:29:44;3.10;;;0.90;;
47778;SDS011;33538;48.432;11.350;2022-09-21T08:32:11;2.95;;;1.15;;
47778;SDS011;33538;48.432;11.350;2022-09-21T08:34:58;2.13;;;1.05;;
47778;SDS011;33538;48.432;11.350;2022-09-21T08:37:26;3.08;;;1.40;;
47778;SDS011;33538;48.432;11.350;2022-09-21T08:39:52;1.90;;;1.23;;
47778;SDS011;33538;48.432;11.350;2022-09-21T08:42:29;4.10;;;1.10;;
47778;SDS011;33538;48.432;11.350;2022-09-21T08:45:05;2.00;;;1.10;;
47778;SDS011;33538;48.432;11.350;2022-09-21T08:47:39;1.63;;;1.15;;
47778;SDS011;33538;48.432;11.350;2022-09-21T08:50:18;2.92;;;1.58;;
47778;SDS011;33538;48.432;11.350;2022-09-21T08:53:07;4.05;;;1.17;;
47778;SDS011;33538;48.432;11.350;2022-09-21T08:55:38;1.65;;;0.90;;
47778;SDS011;33538;48.432;11.350;2022-09-21T08:58:07;6.30;;;1.00;;
47778;SDS011;33538;48.432;11.350;2022-09-21T09:00:46;2.40;;;1.30;;
47778;SDS011;33538;48.432;11.350;2022-09-21T09:06:12;0.75;;;0.75;;
47778;SDS011;33538;48.432;11.350;2022-09-21T09:11:55;2.65;;;0.95;;
47778;SDS011;33538;48.432;11.350;2022-09-21T09:14:52;1.60;;;0.93;;
47778;SDS011;33538;48.432;11.350;2022-09-21T09:17:32;0.80;;;0.80;;
47778;SDS011;33538;48.432;11.350;2022-09-21T09:20:10;1.27;;;0.75;;
47778;SDS011;33538;48.432;11.350;2022-09-21T09:22:41;1.30;;;0.60;;
47778;SDS011;33538;48.432;11.350;2022-09-21T09:25:16;0.68;;;0.57;;
47778;SDS011;33538;48.432;11.350;2022-09-21T09:27:45;0.90;;;0.67;;
47778;SDS011;33538;48.432;11.350;2022-09-21T09:30:15;2.55;;;0.77;;
47778;SDS011;33538;48.432;11.350;2022-09-21T09:32:46;1.15;;;0.70;;
47778;SDS011;33538;48.432;11.350;2022-09-21T09:35:21;0.90;;;0.70;;
47778;SDS011;33538;48.432;11.350;2022-09-21T09:37:51;1.30;;;0.63;;
47778;SDS011;33538;48.432;11.350;2022-09-21T09:40:27;0.80;;;0.80;;
47778;SDS011;33538;48.432;11.350;2022-09-21T09:43:10;1.05;;;0.70;;
47778;SDS011;33538;48.432;11.350;2022-09-21T09:45:49;1.40;;;0.80;;
47778;SDS011;33538;48.432;11.350;2022-09-21T09:48:28;0.68;;;0.68;;
47778;SDS011;33538;48.432;11.350;2022-09-21T09:51:02;3.50;;;0.80;;
47778;SDS011;33538;48.432;11.350;2022-09-21T09:53:29;0.50;;;0.50;;
47778;SDS011;33538;48.432;11.350;2022-09-21T09:55:57;1.73;;;0.80;;
47778;SDS011;33538;48.432;11.350;2022-09-21T09:58:29;0.75;;;0.70;;
47778;SDS011;33538;48.432;11.350;2022-09-21T10:01:02;5.60;;;0.80;;
47778;SDS011;33538;48.432;11.350;2022-09-21T10:03:29;1.45;;;0.73;;
47778;SDS011;33538;48.432;11.350;2022-09-21T10:05:56;1.83;;;0.68;;
47778;SDS011;33538;48.432;11.350;2022-09-21T10:08:27;0.50;;;0.50;;
47778;SDS011;33538;48.432;11.350;2022-09-21T10:10:57;1.10;;;0.60;;
47778;SDS011;33538;48.432;11.350;2022-09-21T10:13:25;0.38;;;0.38;;
47778;SDS011;33538;48.432;11.350;2022-09-21T10:15:55;0.77;;;0.70;;
47778;SDS011;33538;48.432;11.350;2022-09-21T10:18:24;0.47;;;0.32;;
47778;SDS011;33538;48.432;11.350;2022-09-21T10:21:01;0.17;;;0.17;;
47778;SDS011;33538;48.432;11.350;2022-09-21T10:23:31;0.28;;;0.22;;
47778;SDS011;33538;48.432;11.350;2022-09-21T10:26:01;0.63;;;0.30;;
47778;SDS011;33538;48.432;11.350;2022-09-21T10:28:30;0.47;;;0.35;;
47778;SDS011;33538;48.432;11.350;2022-09-21T10:31:07;0.52;;;0.40;;
47778;SDS011;33538;48.432;11.350;2022-09-21T10:33:53;0.35;;;0.20;;
47778;SDS011;33538;48.432;11.350;2022-09-21T10:36:32;1.88;;;0.40;;
47778;SDS011;33538;48.432;11.350;2022-09-21T10:42:05;0.20;;;0.20;;
47778;SDS011;33538;48.432;11.350;2022-09-21T10:44:38;1.00;;;0.50;;
47778;SDS011;33538;48.432;11.350;2022-09-21T10:47:14;0.43;;;0.32;;
47778;SDS011;33538;48.432;11.350;2022-09-21T10:49:44;0.22;;;0.22;;
47778;SDS011;33538;48.432;11.350;2022-09-21T10:52:14;0.40;;;0.40;;
47778;SDS011;33538;48.432;11.350;2022-09-21T10:54:42;0.45;;;0.38;;
47778;SDS011;33538;48.432;11.350;2022-09-21T10:57:14;1.52;;;0.55;;
47778;SDS011;33538;48.432;11.350;2022-09-21T10:59:42;0.75;;;0.50;;
47778;SDS011;33538;48.432;11.350;2022-09-21T11:02:26;4.32;;;0.60;;
47778;SDS011;33538;48.432;11.350;2022-09-21T11:05:01;0.82;;;0.50;;
47778;SDS011;33538;48.432;11.350;2022-09-21T11:07:36;1.00;;;0.55;;
47778;SDS011;33538;48.432;11.350;2022-09-21T11:10:09;0.52;;;0.50;;
47778;SDS011;33538;48.432;11.350;2022-09-21T11:12:45;1.15;;;0.73;;
47778;SDS011;33538;48.432;11.350;2022-09-21T11:15:24;0.50;;;0.50;;
47778;SDS011;33538;48.432;11.350;2022-09-21T11:18:03;0.50;;;0.38;;
47778;SDS011;33538;48.432;11.350;2022-09-21T11:20:38;2.65;;;0.50;;
47778;SDS011;33538;48.432;11.350;2022-09-21T11:23:10;1.33;;;0.40;;
47778;SDS011;33538;48.432;11.350;2022-09-21T11:25:48;1.08;;;0.50;;
47778;SDS011;33538;48.432;11.350;2022-09-21T11:30:56;1.00;;;0.52;;
47778;SDS011;33538;48.432;11.350;2022-09-21T11:33:37;0.82;;;0.50;;
47778;SDS011;33538;48.432;11.350;2022-09-21T11:36:14;2.58;;;0.40;;
47778;SDS011;33538;48.432;11.350;2022-09-21T11:38:50;0.60;;;0.57;;
47778;SDS011;33538;48.432;11.350;2022-09-21T11:41:27;0.70;;;0.50;;
47778;SDS011;33538;48.432;11.350;2022-09-21T11:44:07;1.35;;;0.55;;
47778;SDS011;33538;48.432;11.350;2022-09-21T11:46:51;0.93;;;0.77;;
47778;SDS011;33538;48.432;11.350;2022-09-21T11:49:31;0.93;;;0.60;;
47778;SDS011;33538;48.432;11.350;2022-09-21T11:52:15;5.97;;;1.10;;
47778;SDS011;33538;48.432;11.350;2022-09-21T11:55:05;0.95;;;0.68;;
47778;SDS011;33538;48.432;11.350;2022-09-21T11:57:43;1.85;;;0.85;;
47778;SDS011;33538;48.432;11.350;2022-09-21T12:00:22;0.95;;;0.70;;
47778;SDS011;33538;48.432;11.350;2022-09-21T12:03:11;1.27;;;0.70;;
47778;SDS011;33538;48.432;11.350;2022-09-21T12:06:03;1.33;;;0.80;;
47778;SDS011;33538;48.432;11.350;2022-09-21T12:08:53;1.35;;;0.77;;
47778;SDS011;33538;48.432;11.350;2022-09-21T12:11:33;2.47;;;0.55;;
47778;SDS011;33538;48.432;11.350;2022-09-21T12:14:06;1.15;;;0.60;;
47778;SDS011;33538;48.432;11.350;2022-09-21T12:16:46;1.55;;;0.85;;
47778;SDS011;33538;48.432;11.350;2022-09-21T12:19:22;0.68;;;0.63;;
47778;SDS011;33538;48.432;11.350;2022-09-21T12:21:58;0.85;;;0.60;;
47778;SDS011;33538;48.432;11.350;2022-09-21T12:24:30;1.15;;;0.60;;
47778;SDS011;33538;48.432;11.350;2022-09-21T12:27:01;2.35;;;0.80;;
47778;SDS011;33538;48.432;11.350;2022-09-21T12:29:35;0.82;;;0.73;;
47778;SDS011;33538;48.432;11.350;2022-09-21T12:32:10;1.98;;;1.48;;
47778;SDS011;33538;48.432;11.350;2022-09-21T12:34:45;0.55;;;0.55;;
47778;SDS011;33538;48.432;11.350;2022-09-21T12:37:16;3.40;;;1.45;;
47778;SDS011;33538;48.432;11.350;2022-09-21T12:39:48;2.13;;;1.10;;
47778;SDS011;33538;48.432;11.350;2022-09-21T12:42:23;0.70;;;0.70;;
47778;SDS011;33538;48.432;11.350;2022-09-21T12:44:55;1.58;;;0.88;;
47778;SDS011;33538;48.432;11.350;2022-09-21T12:47:32;1.90;;;0.63;;
47778;SDS011;33538;48.432;11.350;2022-09-21T12:50:14;3.20;;;1.02;;
47778;SDS011;33538;48.432;11.350;2022-09-21T12:52:44;0.50;;;0.50;;
47778;SDS011;33538;48.432;11.350;2022-09-21T12:55:17;0.45;;;0.45;;
47778;SDS011;33538;48.432;11.350;2022-09-21T12:58:05;1.58;;;0.73;;
47778;SDS011;33538;48.432;11.350;2022-09-21T13:00:44;0.60;;;0.57;;
47778;SDS011;33538;48.432;11.350;2022-09-21T13:03:23;3.28;;;0.88;;
47778;SDS011;33538;48.432;11.350;2022-09-21T13:06:04;1.00;;;0.80;;
47778;SDS011;33538;48.432;11.350;2022-09-21T13:08:53;0.80;;;0.55;;
47778;SDS011;33538;48.432;11.350;2022-09-21T13:11:21;2.78;;;0.75;;
47778;SDS011;33538;48.432;11.350;2022-09-21T13:13:49;1.20;;;0.70;;
47778;SDS011;33538;48.432;11.350;2022-09-21T13:16:22;0.50;;;0.50;;
47778;SDS011;33538;48.432;11.350;2022-09-21T13:18:55;1.15;;;0.60;;
47778;SDS011;33538;48.432;11.350;2022-09-21T13:21:24;0.63;;;0.50;;
47778;SDS011;33538;48.432;11.350;2022-09-21T13:23:54;0.95;;;0.65;;
47778;SDS011;33538;48.432;11.350;2022-09-21T13:26:30;2.58;;;0.70;;
47778;SDS011;33538;48.432;11.350;2022-09-21T13:31:55;3.10;;;0.73;;
47778;SDS011;33538;48.432;11.350;2022-09-21T13:34:29;1.05;;;0.60;;
47778;SDS011;33538;48.432;11.350;2022-09-21T13:43:21;0.47;;;0.47;;
47778;SDS011;33538;48.432;11.350;2022-09-21T13:46:06;0.85;;;0.63;;
47778;SDS011;33538;48.432;11.350;2022-09-21T13:48:34;0.73;;;0.50;;
47778;SDS011;33538;48.432;11.350;2022-09-21T13:51:06;1.13;;;0.80;;
47778;SDS011;33538;48.432;11.350;2022-09-21T13:53:35;1.33;;;0.90;;
47778;SDS011;33538;48.432;11.350;2022-09-21T13:58:51;1.67;;;0.95;;
47778;SDS011;33538;48.432;11.350;2022-09-21T14:01:21;1.30;;;0.70;;
47778;SDS011;33538;48.432;11.350;2022-09-21T14:04:15;0.85;;;0.70;;
47778;SDS011;33538;48.432;11.350;2022-09-21T14:06:48;1.02;;;0.70;;
47778;SDS011;33538;48.432;11.350;2022-09-21T14:09:20;1.58;;;0.60;;
47778;SDS011;33538;48.432;11.350;2022-09-21T14:11:52;1.65;;;0.80;;
47778;SDS011;33538;48.432;11.350;2022-09-21T14:14:23;0.80;;;0.70;;
47778;SDS011;33538;48.432;11.350;2022-09-21T14:16:54;0.55;;;0.55;;
47778;SDS011;33538;48.432;11.350;2022-09-21T14:22:37;0.70;;;0.70;;
47778;SDS011;33538;48.432;11.350;2022-09-21T14:25:21;0.93;;;0.60;;
47778;SDS011;33538;48.432;11.350;2022-09-21T14:28:08;1.02;;;0.60;;
47778;SDS011;33538;48.432;11.350;2022-09-21T14:30:37;1.08;;;0.60;;
47778;SDS011;33538;48.432;11.350;2022-09-21T14:36:05;1.13;;;0.77;;
47778;SDS011;33538;48.432;11.350;2022-09-21T14:38:36;1.42;;;0.80;;
47778;SDS011;33538;48.432;11.350;2022-09-21T14:41:08;0.70;;;0.65;;
47778;SDS011;33538;48.432;11.350;2022-09-21T14:43:42;0.68;;;0.60;;
47778;SDS011;33538;48.432;11.350;2022-09-21T14:46:29;0.68;;;0.68;;
47778;SDS011;33538;48.432;11.350;2022-09-21T14:49:28;1.02;;;0.70;;
47778;SDS011;33538;48.432;11.350;2022-09-21T14:52:06;0.90;;;0.60;;
47778;SDS011;33538;48.432;11.350;2022-09-21T14:54:57;1.15;;;0.85;;
47778;SDS011;33538;48.432;11.350;2022-09-21T14:57:39;1.05;;;0.50;;
47778;SDS011;33538;48.432;11.350;2022-09-21T15:00:18;1.57;;;0.80;;
47778;SDS011;33538;48.432;11.350;2022-09-21T15:02:46;1.35;;;0.98;;
47778;SDS011;33538;48.432;11.350;2022-09-21T15:05:18;0.60;;;0.47;;
47778;SDS011;33538;48.432;11.350;2022-09-21T15:08:01;0.50;;;0.50;;
47778;SDS011;33538;48.432;11.350;2022-09-21T15:10:46;0.75;;;0.52;;
47778;SDS011;33538;48.432;11.350;2022-09-21T15:13:29;0.63;;;0.60;;
47778;SDS011;33538;48.432;11.350;2022-09-21T15:16:16;1.05;;;0.60;;
47778;SDS011;33538;48.432;11.350;2022-09-21T15:18:50;0.47;;;0.43;;
47778;SDS011;33538;48.432;11.350;2022-09-21T15:21:27;2.33;;;0.60;;
47778;SDS011;33538;48.432;11.350;2022-09-21T15:23:55;0.70;;;0.68;;
47778;SDS011;33538;48.432;11.350;2022-09-21T15:26:23;0.85;;;0.63;;
47778;SDS011;33538;48.432;11.350;2022-09-21T15:28:54;1.08;;;0.73;;
47778;SDS011;33538;48.432;11.350;2022-09-21T15:31:35;0.85;;;0.85;;
47778;SDS011;33538;48.432;11.350;2022-09-21T15:34:04;1.98;;;0.65;;
47778;SDS011;33538;48.432;11.350;2022-09-21T15:36:32;1.80;;;1.13;;